Time;durP1;ratioP1;P1;durP2;ratioP2;P2;SDS_P1;SDS_P2;PMS_P1;PMS_P2;Temp;Humidity;BMP_temperature;BMP_pressure;BME280_temperature;BME280_humidity;BME280_pressure;Samples;Min_cycle;Max_cycle;Signal;HPM_P1;HPM_P2
2021/11/25 00:02:07;;;;;;;1.50;0.67;;;5.20;99.90;;;;;;5026317;28;20182;-84
2021/11/25 00:04:33;;;;;;;0.70;0.60;;;5.30;99.90;;;;;;5032772;28;20173;-84
2021/11/25 00:06:58;;;;;;;0.77;0.73;;;5.30;99.90;;;;;;5053208;28;20685;-83
2021/11/25 00:09:24;;;;;;;1.70;1.07;;;5.30;99.90;;;;;;5036122;28;20270;-83
2021/11/25 00:11:50;;;;;;;0.40;0.40;;;5.30;99.90;;;;;;5036651;28;20190;-84
2021/11/25 00:14:15;;;;;;;0.40;0.40;;;5.30;99.90;;;;;;5026605;28;20189;-84
2021/11/25 00:16:41;;;;;;;1.20;0.87;;;5.40;99.90;;;;;;5031091;28;20186;-83
2021/11/25 00:19:07;;;;;;;0.43;0.43;;;5.40;99.90;;;;;;5035210;28;20237;-84
2021/11/25 00:21:33;;;;;;;1.80;0.53;;;5.30;99.90;;;;;;5041419;28;20233;-83
2021/11/25 00:23:58;;;;;;;0.40;0.40;;;5.30;99.90;;;;;;5033889;28;20421;-84
2021/11/25 00:26:25;;;;;;;1.43;0.93;;;5.30;99.90;;;;;;5057375;28;20640;-83
2021/11/25 00:28:51;;;;;;;1.37;0.93;;;5.40;99.90;;;;;;5052554;28;20268;-84
2021/11/25 00:31:17;;;;;;;1.40;0.37;;;5.40;99.90;;;;;;5050408;28;20280;-83
2021/11/25 00:33:42;;;;;;;1.13;1.03;;;5.40;99.90;;;;;;5041695;28;20191;-83
2021/11/25 00:36:08;;;;;;;1.23;1.13;;;5.40;99.90;;;;;;5024905;28;20181;-84
2021/11/25 00:38:34;;;;;;;0.77;0.77;;;5.40;99.90;;;;;;5052972;28;20202;-84
2021/11/25 00:41:00;;;;;;;1.73;1.37;;;5.40;99.90;;;;;;5050373;28;20180;-84
2021/11/25 00:43:26;;;;;;;1.00;0.90;;;5.40;99.90;;;;;;5026853;28;20197;-84
2021/11/25 00:45:51;;;;;;;0.30;0.30;;;5.50;99.90;;;;;;5020246;28;20186;-83
2021/11/25 00:48:17;;;;;;;0.43;0.43;;;5.50;99.90;;;;;;5051516;28;20279;-83
2021/11/25 00:50:43;;;;;;;0.50;0.50;;;5.40;99.90;;;;;;5048719;28;20604;-84
2021/11/25 00:53:10;;;;;;;1.43;1.40;;;5.40;99.90;;;;;;5033269;28;20181;-83
2021/11/25 00:55:37;;;;;;;0.40;0.40;;;5.40;99.90;;;;;;5051254;28;20183;-84
2021/11/25 00:58:02;;;;;;;0.70;0.53;;;5.40;99.90;;;;;;5033982;28;20736;-84
2021/11/25 01:00:28;;;;;;;1.13;0.87;;;5.20;99.90;;;;;;5029907;28;20294;-83
2021/11/25 01:02:54;;;;;;;0.37;0.37;;;5.20;99.90;;;;;;5035057;28;20535;-84
2021/11/25 01:05:20;;;;;;;0.87;0.63;;;5.20;99.90;;;;;;5031595;28;20184;-84
2021/11/25 01:07:47;;;;;;;0.67;0.63;;;5.10;99.90;;;;;;5034464;28;20720;-84
2021/11/25 01:10:15;;;;;;;0.30;0.30;;;5.10;99.90;;;;;;5042200;28;20200;-84
2021/11/25 01:12:42;;;;;;;1.93;0.60;;;5.10;99.90;;;;;;5033512;28;20178;-84
2021/11/25 01:15:09;;;;;;;0.63;0.40;;;5.00;99.90;;;;;;5062827;28;20638;-83
2021/11/25 01:17:39;;;;;;;2.90;1.20;;;4.80;99.90;;;;;;5030338;28;20216;-83
2021/11/25 01:20:07;;;;;;;0.43;0.43;;;4.60;99.90;;;;;;5022963;28;20228;-83
2021/11/25 01:22:33;;;;;;;1.03;0.93;;;4.60;99.90;;;;;;5033582;28;20183;-84
2021/11/25 01:24:58;;;;;;;0.93;0.67;;;4.80;99.90;;;;;;5027338;28;20714;-84
2021/11/25 01:27:24;;;;;;;1.17;0.70;;;4.70;99.90;;;;;;5045714;28;20202;-83
2021/11/25 01:29:49;;;;;;;3.40;1.43;;;4.60;99.90;;;;;;5029649;28;20205;-84
2021/11/25 01:32:15;;;;;;;0.50;0.50;;;4.60;99.90;;;;;;5033002;28;20268;-83
2021/11/25 01:34:40;;;;;;;0.67;0.67;;;4.20;99.90;;;;;;5028265;28;20524;-83
2021/11/25 01:37:06;;;;;;;5.87;1.87;;;4.00;99.90;;;;;;5033398;28;20561;-83
2021/11/25 01:39:31;;;;;;;1.13;1.03;;;3.80;99.90;;;;;;5024533;28;20228;-83
2021/11/25 01:41:57;;;;;;;1.03;0.93;;;4.00;99.90;;;;;;5030732;28;20695;-84
2021/11/25 01:44:22;;;;;;;2.07;1.07;;;4.00;99.90;;;;;;5056762;28;20182;-84
2021/11/25 01:46:48;;;;;;;3.00;1.40;;;3.80;99.90;;;;;;5055076;28;20781;-83
2021/11/25 01:49:14;;;;;;;1.73;1.20;;;3.70;99.90;;;;;;5033839;28;20251;-84
2021/11/25 01:51:39;;;;;;;3.90;2.47;;;3.60;99.90;;;;;;5040917;28;20188;-84
2021/11/25 01:54:05;;;;;;;1.80;1.70;;;3.40;99.90;;;;;;5034910;28;20187;-83
2021/11/25 01:56:31;;;;;;;2.50;1.40;;;3.70;99.90;;;;;;5055192;28;20173;-83
2021/11/25 01:58:56;;;;;;;1.57;1.47;;;3.80;99.90;;;;;;5036676;28;20662;-83
2021/11/25 02:01:23;;;;;;;0.30;0.30;;;4.00;99.90;;;;;;5039699;28;20181;-84
2021/11/25 02:03:50;;;;;;;0.73;0.70;;;4.10;99.90;;;;;;5034665;28;20179;-84
2021/11/25 02:06:18;;;;;;;1.20;1.07;;;4.30;99.90;;;;;;5030228;28;20244;-84
2021/11/25 02:08:44;;;;;;;1.70;0.87;;;4.10;99.90;;;;;;5029848;28;20225;-83
2021/11/25 02:11:10;;;;;;;0.83;0.77;;;4.00;99.90;;;;;;5037562;28;20186;-84
2021/11/25 02:13:36;;;;;;;0.20;0.20;;;4.10;99.90;;;;;;5043074;28;20694;-84
2021/11/25 02:16:02;;;;;;;0.87;0.87;;;3.80;99.90;;;;;;5036860;28;20264;-84
2021/11/25 02:18:29;;;;;;;1.73;0.57;;;3.70;99.90;;;;;;5038844;28;20682;-84
2021/11/25 02:20:58;;;;;;;0.53;0.53;;;3.60;99.90;;;;;;5031915;28;20176;-84
2021/11/25 02:23:24;;;;;;;1.23;1.20;;;3.50;99.90;;;;;;5034705;28;20181;-84
2021/11/25 02:25:50;;;;;;;1.10;1.10;;;3.40;99.90;;;;;;5056083;28;20196;-83
2021/11/25 02:28:20;;;;;;;1.23;1.20;;;3.60;99.90;;;;;;5033993;28;20202;-84
2021/11/25 02:30:47;;;;;;;4.93;1.10;;;3.60;99.90;;;;;;5037078;28;20181;-83
2021/11/25 02:33:13;;;;;;;1.50;1.27;;;3.80;99.90;;;;;;5035606;28;20176;-84
2021/11/25 02:35:39;;;;;;;1.37;0.70;;;3.80;99.90;;;;;;5048508;28;20192;-83
2021/11/25 02:38:06;;;;;;;2.93;1.87;;;4.00;99.90;;;;;;5047780;28;20251;-84
2021/11/25 02:40:40;;;;;;;0.20;0.20;;;3.80;99.90;;;;;;5025565;28;20182;-83
2021/11/25 02:43:10;;;;;;;0.83;0.83;;;3.50;99.90;;;;;;5038702;28;20643;-83
2021/11/25 02:45:54;;;;;;;1.73;0.53;;;3.70;99.90;;;;;;5035727;28;20182;-84
2021/11/25 02:48:47;;;;;;;2.23;1.27;;;3.90;99.90;;;;;;5047115;28;20219;-83
2021/11/25 02:51:16;;;;;;;0.67;0.67;;;4.10;99.90;;;;;;5050620;28;20172;-84
2021/11/25 02:53:43;;;;;;;0.60;0.30;;;4.20;99.90;;;;;;5036136;28;20177;-83
2021/11/25 02:56:12;;;;;;;1.30;1.03;;;4.20;99.90;;;;;;5040561;28;20184;-83
2021/11/25 02:58:38;;;;;;;1.63;1.07;;;3.80;99.90;;;;;;5031080;28;20623;-84
2021/11/25 03:01:16;;;;;;;0.50;0.50;;;3.70;99.90;;;;;;5028864;28;20171;-82
2021/11/25 03:03:41;;;;;;;0.40;0.40;;;3.70;99.90;;;;;;5050912;28;20226;-84
2021/11/25 03:06:07;;;;;;;0.60;0.60;;;3.70;99.90;;;;;;5035813;28;20178;-83
2021/11/25 03:08:33;;;;;;;1.97;1.07;;;4.00;99.90;;;;;;5036753;28;20204;-83
2021/11/25 03:11:03;;;;;;;0.50;0.50;;;4.00;99.90;;;;;;5034864;28;20263;-84
2021/11/25 03:13:29;;;;;;;2.90;2.23;;;3.70;99.90;;;;;;5034403;28;20178;-84
2021/11/25 03:15:55;;;;;;;1.97;1.83;;;3.70;99.90;;;;;;5051222;28;20181;-84
2021/11/25 03:18:21;;;;;;;0.90;0.90;;;3.60;99.90;;;;;;5031090;28;20215;-83
2021/11/25 03:20:50;;;;;;;0.40;0.40;;;3.60;99.90;;;;;;5036532;28;20259;-83
2021/11/25 03:23:17;;;;;;;1.03;0.87;;;3.60;99.90;;;;;;5059775;28;20179;-83
2021/11/25 03:25:44;;;;;;;0.27;0.27;;;3.60;99.90;;;;;;5053716;28;20170;-84
2021/11/25 03:28:10;;;;;;;0.60;0.60;;;3.60;99.90;;;;;;5028342;28;20553;-84
2021/11/25 03:30:38;;;;;;;0.50;0.50;;;3.60;99.90;;;;;;5047589;28;20235;-83
2021/11/25 03:33:06;;;;;;;0.43;0.33;;;3.70;99.90;;;;;;5036008;28;20547;-84
2021/11/25 03:35:32;;;;;;;0.10;0.10;;;3.80;99.90;;;;;;5057788;28;20235;-84
2021/11/25 03:37:58;;;;;;;0.83;0.83;;;4.00;99.90;;;;;;5030162;28;20579;-84
2021/11/25 03:40:24;;;;;;;3.43;1.10;;;3.80;99.90;;;;;;5035305;28;20256;-83
2021/11/25 03:42:51;;;;;;;2.70;1.80;;;4.00;99.90;;;;;;5037880;28;20178;-84
2021/11/25 03:45:17;;;;;;;1.70;1.00;;;3.90;99.90;;;;;;5048762;28;20224;-84
2021/11/25 03:47:44;;;;;;;0.93;0.67;;;3.60;99.90;;;;;;5050441;28;22143;-83
2021/11/25 03:50:10;;;;;;;0.77;0.77;;;3.70;99.90;;;;;;5037859;28;20188;-84
2021/11/25 03:52:36;;;;;;;0.50;0.50;;;4.10;99.90;;;;;;5025208;28;20641;-83
2021/11/25 03:55:08;;;;;;;1.50;0.53;;;4.30;99.90;;;;;;5025442;28;20264;-83
2021/11/25 03:57:33;;;;;;;0.80;0.80;;;4.40;99.90;;;;;;5031196;28;20200;-83
2021/11/25 03:59:59;;;;;;;0.17;0.17;;;4.50;99.90;;;;;;5031396;28;20209;-84
2021/11/25 04:02:25;;;;;;;0.20;0.20;;;4.20;99.90;;;;;;5046048;28;20177;-84
2021/11/25 04:04:50;;;;;;;0.83;0.77;;;4.20;99.90;;;;;;5034637;28;20796;-83
2021/11/25 04:07:16;;;;;;;5.47;1.33;;;4.20;99.90;;;;;;5024846;28;20201;-83
2021/11/25 04:09:42;;;;;;;0.70;0.70;;;4.30;99.90;;;;;;5027529;28;20199;-83
2021/11/25 04:12:08;;;;;;;0.53;0.53;;;4.30;99.90;;;;;;5033725;28;20180;-83
2021/11/25 04:14:33;;;;;;;0.73;0.73;;;4.40;99.90;;;;;;5035293;28;20182;-84
2021/11/25 04:17:00;;;;;;;0.83;0.67;;;4.50;99.90;;;;;;5027594;28;20717;-84
2021/11/25 04:19:26;;;;;;;2.33;2.13;;;4.60;99.90;;;;;;5054051;28;20217;-83
2021/11/25 04:21:52;;;;;;;0.73;0.30;;;4.70;99.90;;;;;;5038015;28;20205;-85
2021/11/25 04:24:18;;;;;;;0.57;0.57;;;4.70;99.90;;;;;;5026619;28;20212;-84
2021/11/25 04:26:43;;;;;;;1.60;0.70;;;4.70;99.90;;;;;;5033753;28;20185;-85
2021/11/25 04:29:10;;;;;;;0.50;0.50;;;4.80;99.90;;;;;;5035397;28;20673;-85
2021/11/25 04:37:05;;;;;;;1.33;0.67;;;4.80;99.90;;;;;;5044181;28;20240;-85
2021/11/25 04:39:30;;;;;;;0.40;0.40;;;4.80;99.90;;;;;;5026511;28;20202;-85
2021/11/25 04:41:56;;;;;;;1.70;0.53;;;4.90;99.90;;;;;;5034348;28;20189;-85
2021/11/25 04:44:21;;;;;;;1.60;1.03;;;4.90;99.90;;;;;;5049223;28;20265;-85
2021/11/25 04:46:47;;;;;;;1.10;0.93;;;4.70;99.90;;;;;;5034941;28;20201;-85
2021/11/25 04:49:13;;;;;;;1.03;1.00;;;4.40;99.90;;;;;;5035280;28;20193;-85
2021/11/25 04:51:39;;;;;;;2.23;1.07;;;4.10;99.90;;;;;;5051053;28;20181;-85
2021/11/25 04:54:05;;;;;;;2.20;0.57;;;4.10;99.90;;;;;;5045754;28;20181;-86
2021/11/25 04:56:31;;;;;;;1.80;1.00;;;4.30;99.90;;;;;;5030749;28;20214;-85
2021/11/25 04:58:57;;;;;;;1.07;0.77;;;4.40;99.90;;;;;;5030338;28;20234;-85
2021/11/25 05:01:24;;;;;;;0.70;0.60;;;4.60;99.90;;;;;;5033410;28;20185;-86
2021/11/25 05:03:50;;;;;;;2.80;1.57;;;4.40;99.90;;;;;;5050205;28;20825;-85
2021/11/25 05:06:16;;;;;;;0.83;0.83;;;4.20;99.90;;;;;;5034638;28;20173;-85
2021/11/25 05:08:42;;;;;;;0.70;0.70;;;3.90;99.90;;;;;;5034562;28;20700;-85
2021/11/25 05:11:08;;;;;;;3.30;1.43;;;4.20;99.90;;;;;;5028463;28;20176;-86
2021/11/25 05:13:34;;;;;;;1.30;1.20;;;4.40;99.90;;;;;;5031098;28;20215;-85
2021/11/25 05:16:03;;;;;;;0.97;0.97;;;4.30;99.90;;;;;;5047895;28;20182;-85
2021/11/25 05:18:28;;;;;;;1.27;0.93;;;4.00;99.90;;;;;;5029986;28;20201;-85
2021/11/25 05:20:55;;;;;;;1.33;1.03;;;4.10;99.90;;;;;;5032254;28;20652;-85
2021/11/25 05:23:21;;;;;;;4.13;1.93;;;4.20;99.90;;;;;;5033217;28;20236;-85
2021/11/25 05:25:46;;;;;;;0.93;0.93;;;4.30;99.90;;;;;;5032596;28;20180;-85
2021/11/25 05:28:12;;;;;;;0.60;0.60;;;4.50;99.90;;;;;;5028908;28;20702;-85
2021/11/25 05:30:38;;;;;;;2.13;1.17;;;4.40;99.90;;;;;;5034144;28;22047;-85
2021/11/25 05:33:04;;;;;;;1.20;0.80;;;4.50;99.90;;;;;;5033781;28;20215;-85
2021/11/25 05:35:30;;;;;;;0.80;0.80;;;4.60;99.90;;;;;;5033124;28;20174;-85
2021/11/25 05:37:56;;;;;;;1.70;1.03;;;4.70;99.90;;;;;;5025964;28;20199;-85
2021/11/25 05:40:22;;;;;;;0.30;0.30;;;4.80;99.90;;;;;;5050760;28;20212;-84
2021/11/25 05:42:49;;;;;;;0.77;0.77;;;4.80;99.90;;;;;;5034220;28;20278;-85
2021/11/25 05:45:18;;;;;;;0.80;0.57;;;4.70;99.90;;;;;;5029208;28;20218;-85
2021/11/25 05:47:46;;;;;;;1.00;0.77;;;4.70;99.90;;;;;;5037843;28;20217;-85
2021/11/25 05:50:17;;;;;;;0.87;0.80;;;4.70;99.90;;;;;;5032903;28;20184;-85
2021/11/25 05:52:44;;;;;;;0.40;0.40;;;4.80;99.90;;;;;;5029112;28;20548;-85
2021/11/25 05:55:10;;;;;;;0.80;0.80;;;4.80;99.90;;;;;;5031643;28;20776;-86
2021/11/25 05:57:36;;;;;;;0.57;0.57;;;4.90;99.90;;;;;;5051581;28;20274;-84
2021/11/25 06:00:04;;;;;;;1.50;1.40;;;4.80;99.90;;;;;;5056494;28;20203;-85
2021/11/25 06:02:30;;;;;;;1.20;0.67;;;4.70;99.90;;;;;;5025721;28;20177;-84
2021/11/25 06:04:55;;;;;;;0.83;0.63;;;4.80;99.90;;;;;;5029281;28;20193;-84
2021/11/25 06:07:21;;;;;;;1.00;0.87;;;4.70;99.90;;;;;;5033384;28;20280;-84
2021/11/25 06:09:46;;;;;;;0.53;0.53;;;4.80;99.90;;;;;;5043507;28;20227;-84
2021/11/25 06:12:12;;;;;;;0.57;0.57;;;4.80;99.90;;;;;;5030610;28;20551;-84
2021/11/25 06:14:38;;;;;;;0.80;0.80;;;4.60;99.90;;;;;;5031615;28;20170;-84
2021/11/25 06:17:03;;;;;;;0.43;0.43;;;4.40;99.90;;;;;;5033489;28;20209;-84
2021/11/25 06:19:29;;;;;;;0.83;0.83;;;4.00;99.90;;;;;;5033142;28;20251;-85
2021/11/25 06:21:56;;;;;;;3.33;1.37;;;3.90;99.90;;;;;;5044517;28;20181;-85
2021/11/25 06:24:23;;;;;;;1.23;0.57;;;4.00;99.90;;;;;;5035415;28;20202;-85
2021/11/25 06:26:50;;;;;;;1.97;0.77;;;3.70;99.90;;;;;;5043327;28;20201;-84
2021/11/25 06:29:17;;;;;;;1.57;0.90;;;3.50;99.90;;;;;;5035724;28;20228;-84
2021/11/25 06:31:43;;;;;;;0.50;0.50;;;3.70;99.90;;;;;;5033568;28;20196;-84
2021/11/25 06:34:09;;;;;;;1.30;0.70;;;3.60;99.90;;;;;;5037947;28;20701;-84
2021/11/25 06:36:35;;;;;;;2.00;1.43;;;3.40;99.90;;;;;;5037148;28;20175;-85
2021/11/25 06:39:02;;;;;;;1.50;1.37;;;3.30;99.90;;;;;;5037647;28;20211;-85
2021/11/25 06:41:27;;;;;;;0.40;0.40;;;3.50;99.90;;;;;;5037506;28;20642;-84
2021/11/25 06:43:53;;;;;;;1.07;0.97;;;3.60;99.90;;;;;;5026004;28;20172;-84
2021/11/25 06:46:19;;;;;;;0.10;0.10;;;3.60;99.90;;;;;;5036561;28;20180;-84
2021/11/25 06:48:44;;;;;;;2.47;1.10;;;3.50;99.90;;;;;;5035166;28;20238;-84
2021/11/25 06:51:10;;;;;;;0.90;0.90;;;3.50;99.90;;;;;;5027369;28;20191;-84
2021/11/25 06:53:35;;;;;;;1.10;0.40;;;3.70;99.90;;;;;;5036288;28;20180;-84
2021/11/25 06:56:01;;;;;;;1.30;0.77;;;3.30;99.90;;;;;;5038167;28;20850;-82
2021/11/25 06:58:27;;;;;;;0.30;0.30;;;3.30;99.90;;;;;;5036195;28;20629;-82
2021/11/25 07:00:52;;;;;;;0.60;0.43;;;3.40;99.90;;;;;;5035665;28;20179;-82
2021/11/25 07:03:18;;;;;;;0.60;0.60;;;3.50;99.90;;;;;;5029381;28;20188;-82
2021/11/25 07:05:45;;;;;;;1.23;0.40;;;3.50;99.90;;;;;;5052445;28;20702;-82
2021/11/25 07:08:11;;;;;;;1.10;1.00;;;3.50;99.90;;;;;;5054216;28;20190;-82
2021/11/25 07:10:36;;;;;;;1.23;0.50;;;3.40;99.90;;;;;;5030535;28;20225;-81
2021/11/25 07:13:02;;;;;;;0.40;0.40;;;3.40;99.90;;;;;;5056557;28;20515;-81
2021/11/25 07:15:28;;;;;;;1.17;1.07;;;3.30;99.90;;;;;;5037934;28;20777;-81
2021/11/25 07:17:54;;;;;;;0.83;0.83;;;3.30;99.90;;;;;;5035789;28;20330;-81
2021/11/25 07:20:20;;;;;;;0.50;0.50;;;3.20;99.90;;;;;;5031304;28;20210;-81
2021/11/25 07:22:46;;;;;;;1.33;1.23;;;3.20;99.90;;;;;;5051690;28;20232;-83
2021/11/25 07:25:15;;;;;;;0.77;0.77;;;3.20;99.90;;;;;;5036542;28;20746;-84
2021/11/25 07:27:42;;;;;;;1.10;0.53;;;3.30;99.90;;;;;;5036584;28;20202;-83
2021/11/25 07:30:10;;;;;;;0.70;0.70;;;3.30;99.90;;;;;;5038958;28;20643;-83
2021/11/25 07:32:36;;;;;;;1.00;0.97;;;3.30;99.90;;;;;;5050196;28;20213;-83
2021/11/25 07:35:04;;;;;;;0.37;0.33;;;3.20;99.90;;;;;;5031035;28;20240;-83
2021/11/25 07:37:29;;;;;;;2.67;1.30;;;3.10;99.90;;;;;;5027624;28;20622;-83
2021/11/25 07:39:55;;;;;;;0.40;0.37;;;3.10;99.90;;;;;;5029000;28;20205;-83
2021/11/25 07:42:20;;;;;;;3.03;1.80;;;3.20;99.90;;;;;;5038387;28;20198;-83
2021/11/25 07:44:46;;;;;;;0.50;0.50;;;3.30;99.90;;;;;;5037743;28;20235;-83
2021/11/25 07:47:12;;;;;;;0.90;0.90;;;3.20;99.90;;;;;;5035737;28;20295;-84
2021/11/25 07:49:38;;;;;;;1.53;1.33;;;3.30;99.90;;;;;;5039749;28;20210;-84
2021/11/25 07:52:07;;;;;;;1.40;1.17;;;3.20;99.90;;;;;;5035602;28;20610;-84
2021/11/25 07:54:33;;;;;;;0.67;0.67;;;3.20;99.90;;;;;;5037139;28;20180;-84
2021/11/25 07:57:00;;;;;;;1.50;0.93;;;3.50;99.90;;;;;;5052025;28;20208;-84
2021/11/25 07:59:27;;;;;;;0.60;0.60;;;3.50;99.90;;;;;;5030315;28;20206;-84
2021/11/25 08:01:55;;;;;;;0.60;0.60;;;3.70;99.90;;;;;;5038796;28;20188;-85
2021/11/25 08:04:21;;;;;;;1.90;1.20;;;3.60;99.90;;;;;;5034534;28;20179;-84
2021/11/25 08:06:46;;;;;;;0.70;0.70;;;3.60;99.90;;;;;;5040655;28;20186;-82
2021/11/25 08:09:12;;;;;;;0.40;0.40;;;3.80;99.90;;;;;;5033549;28;20548;-84
2021/11/25 08:11:38;;;;;;;0.37;0.33;;;3.70;99.90;;;;;;5036824;28;20197;-84
2021/11/25 08:14:03;;;;;;;5.27;2.30;;;3.50;99.90;;;;;;5035783;28;20211;-84
2021/11/25 08:16:29;;;;;;;1.07;0.40;;;3.50;99.90;;;;;;5028575;28;20180;-84
2021/11/25 08:18:54;;;;;;;1.50;0.30;;;3.80;99.90;;;;;;5036306;28;20208;-85
2021/11/25 08:21:22;;;;;;;0.63;0.53;;;4.00;99.90;;;;;;5025739;28;20242;-85
2021/11/25 08:23:47;;;;;;;1.60;1.00;;;4.10;99.90;;;;;;5026916;28;20181;-84
2021/11/25 08:26:13;;;;;;;1.00;0.53;;;4.00;99.90;;;;;;5027291;28;20188;-84
2021/11/25 08:28:40;;;;;;;2.57;0.87;;;4.20;99.90;;;;;;5035449;28;20204;-84
2021/11/25 08:31:07;;;;;;;0.33;0.33;;;4.40;99.90;;;;;;5034122;28;20631;-84
2021/11/25 08:33:32;;;;;;;0.33;0.33;;;4.60;99.90;;;;;;5028584;28;20273;-85
2021/11/25 08:35:58;;;;;;;0.30;0.27;;;4.70;99.90;;;;;;5053981;28;20261;-85
2021/11/25 08:38:24;;;;;;;0.63;0.63;;;4.70;99.90;;;;;;5034614;28;20312;-85
2021/11/25 08:40:50;;;;;;;0.80;0.80;;;4.70;99.90;;;;;;5049269;28;20171;-84
2021/11/25 08:43:17;;;;;;;0.50;0.47;;;4.80;99.90;;;;;;5033778;28;20182;-84
2021/11/25 08:45:43;;;;;;;1.00;0.83;;;4.40;99.90;;;;;;5032489;28;20258;-84
2021/11/25 08:48:08;;;;;;;2.57;1.53;;;4.70;99.90;;;;;;5052120;28;20678;-84
2021/11/25 08:50:34;;;;;;;1.53;1.03;;;4.70;99.90;;;;;;5031642;28;20647;-85
2021/11/25 08:53:02;;;;;;;0.50;0.50;;;4.90;99.90;;;;;;5020876;28;20184;-84
2021/11/25 08:55:32;;;;;;;0.60;0.60;;;5.00;99.90;;;;;;5025581;28;20194;-84
2021/11/25 08:57:57;;;;;;;0.60;0.60;;;5.20;99.90;;;;;;5031359;28;20220;-85
2021/11/25 09:00:23;;;;;;;1.17;1.07;;;5.10;99.90;;;;;;5035584;28;20226;-84
2021/11/25 09:02:50;;;;;;;1.90;0.87;;;5.00;99.90;;;;;;5027863;28;20823;-84
2021/11/25 09:05:15;;;;;;;0.63;0.60;;;4.80;99.90;;;;;;5052455;28;20177;-86
2021/11/25 09:07:41;;;;;;;0.60;0.60;;;4.80;99.90;;;;;;5033140;28;20284;-84
2021/11/25 09:10:08;;;;;;;4.27;0.50;;;4.60;99.90;;;;;;5054262;28;20185;-84
2021/11/25 09:12:33;;;;;;;1.43;1.13;;;4.70;99.90;;;;;;5052491;28;20186;-85
2021/11/25 09:14:59;;;;;;;0.50;0.50;;;4.80;99.90;;;;;;5033284;28;20558;-85
2021/11/25 09:17:24;;;;;;;0.47;0.47;;;5.00;99.90;;;;;;5026141;28;20271;-84
2021/11/25 09:19:50;;;;;;;0.50;0.50;;;5.20;99.90;;;;;;5026189;28;20727;-84
2021/11/25 09:22:16;;;;;;;0.73;0.70;;;5.30;99.90;;;;;;5033897;28;20189;-84
2021/11/25 09:24:42;;;;;;;0.33;0.23;;;5.40;99.90;;;;;;5033958;28;20662;-84
2021/11/25 09:27:08;;;;;;;0.63;0.50;;;5.50;99.90;;;;;;5032074;28;20296;-85
2021/11/25 09:29:34;;;;;;;0.60;0.60;;;5.50;99.90;;;;;;5033558;28;20272;-85
2021/11/25 09:31:59;;;;;;;0.77;0.77;;;5.50;99.90;;;;;;5033683;28;20186;-84
2021/11/25 09:34:25;;;;;;;1.33;0.80;;;5.50;99.90;;;;;;5051492;28;20231;-85
2021/11/25 09:36:51;;;;;;;0.50;0.50;;;5.30;99.90;;;;;;5033114;28;20201;-85
2021/11/25 09:39:17;;;;;;;1.80;0.50;;;5.40;99.90;;;;;;5035166;28;20205;-84
2021/11/25 09:41:43;;;;;;;0.60;0.60;;;5.50;99.90;;;;;;5037047;28;20600;-85
2021/11/25 09:44:09;;;;;;;1.70;0.57;;;5.60;99.90;;;;;;5036085;28;20227;-85
2021/11/25 09:46:36;;;;;;;1.23;1.23;;;5.60;99.90;;;;;;5033066;28;20268;-84
2021/11/25 09:49:02;;;;;;;0.60;0.47;;;5.50;99.90;;;;;;5034990;28;20201;-85
2021/11/25 09:51:30;;;;;;;1.03;0.90;;;5.60;99.90;;;;;;5032283;28;20208;-83
2021/11/25 09:53:56;;;;;;;3.63;1.37;;;5.80;99.90;;;;;;5032135;28;20386;-83
2021/11/25 09:56:22;;;;;;;0.63;0.63;;;5.90;99.90;;;;;;5033222;28;20186;-84
2021/11/25 09:58:50;;;;;;;0.87;0.70;;;5.90;99.90;;;;;;5027948;28;20209;-84
2021/11/25 10:01:19;;;;;;;2.40;0.90;;;5.70;99.90;;;;;;5035439;28;20192;-85
2021/11/25 10:03:51;;;;;;;0.93;0.93;;;5.70;99.90;;;;;;5036864;28;20178;-83
2021/11/25 10:06:18;;;;;;;0.20;0.20;;;5.70;99.90;;;;;;5039120;28;20210;-84
2021/11/25 10:08:48;;;;;;;1.33;0.70;;;5.60;99.90;;;;;;5039454;28;20663;-84
2021/11/25 10:11:18;;;;;;;1.73;1.63;;;5.10;99.90;;;;;;5027525;28;20192;-85
2021/11/25 10:13:58;;;;;;;1.27;0.93;;;4.80;99.90;;;;;;5037660;28;20169;-84
2021/11/25 10:16:33;;;;;;;0.20;0.20;;;4.70;99.90;;;;;;5053573;28;20308;-83
2021/11/25 10:19:17;;;;;;;0.20;0.20;;;5.10;99.90;;;;;;5056293;28;20205;-83
2021/11/25 10:21:52;;;;;;;1.30;1.10;;;4.90;99.90;;;;;;5036108;28;20255;-83
2021/11/25 10:24:45;;;;;;;0.80;0.80;;;4.80;99.90;;;;;;5036062;28;20178;-82
2021/11/25 10:27:17;;;;;;;1.50;1.27;;;4.90;99.90;;;;;;5053100;28;20271;-83
2021/11/25 10:29:45;;;;;;;0.60;0.60;;;5.20;99.90;;;;;;5055148;28;20185;-82
2021/11/25 10:32:17;;;;;;;0.60;0.60;;;5.10;99.90;;;;;;5037514;28;20181;-82
2021/11/25 10:34:54;;;;;;;1.80;0.87;;;5.20;99.90;;;;;;5038095;28;20212;-82
2021/11/25 10:37:52;;;;;;;1.37;1.17;;;5.40;99.90;;;;;;5038097;28;20240;-82
2021/11/25 10:40:25;;;;;;;0.80;0.80;;;5.50;99.90;;;;;;5036793;28;20206;-82
2021/11/25 10:42:51;;;;;;;0.73;0.73;;;5.70;99.90;;;;;;5031880;28;20640;-82
2021/11/25 10:45:19;;;;;;;0.53;0.53;;;5.70;99.90;;;;;;5034280;28;20276;-83
2021/11/25 10:47:58;;;;;;;0.20;0.20;;;5.80;99.90;;;;;;5037856;28;20586;-82
2021/11/25 10:50:24;;;;;;;2.80;1.30;;;5.60;99.90;;;;;;5052883;28;20280;-82
2021/11/25 10:52:51;;;;;;;0.53;0.53;;;5.70;99.90;;;;;;5038850;28;20213;-82
2021/11/25 10:55:18;;;;;;;0.27;0.27;;;5.60;99.90;;;;;;5038486;28;20191;-83
2021/11/25 10:58:04;;;;;;;0.77;0.57;;;5.70;99.90;;;;;;5032084;28;20240;-83
2021/11/25 11:00:36;;;;;;;1.17;1.13;;;5.90;99.90;;;;;;5034825;28;20220;-83
2021/11/25 11:03:06;;;;;;;1.60;1.00;;;6.00;99.90;;;;;;5056709;28;20709;-83
2021/11/25 11:05:52;;;;;;;0.70;0.60;;;6.10;99.90;;;;;;5050442;28;20175;-83
2021/11/25 11:08:19;;;;;;;0.73;0.73;;;6.20;99.90;;;;;;5055857;28;20197;-83
2021/11/25 11:10:54;;;;;;;0.73;0.70;;;6.30;99.90;;;;;;5037823;28;20198;-84
2021/11/25 11:18:53;;;;;;;0.80;0.80;;;6.40;99.90;;;;;;5043667;28;20272;-84
2021/11/25 11:21:30;;;;;;;1.33;1.23;;;6.40;99.90;;;;;;5052228;28;20701;-82
2021/11/25 11:23:57;;;;;;;0.60;0.60;;;6.40;99.90;;;;;;5033260;28;20182;-82
2021/11/25 11:26:23;;;;;;;0.30;0.30;;;6.50;99.90;;;;;;5036764;28;20189;-82
2021/11/25 11:28:48;;;;;;;1.07;0.90;;;6.40;99.90;;;;;;5034575;28;20198;-82
2021/11/25 11:31:14;;;;;;;6.70;1.97;;;6.50;99.90;;;;;;5027381;28;20170;-82
2021/11/25 11:33:41;;;;;;;0.83;0.37;;;6.50;99.90;;;;;;5028211;28;20207;-82
2021/11/25 11:36:07;;;;;;;0.37;0.30;;;6.50;99.90;;;;;;5046034;28;20584;-82
2021/11/25 11:38:35;;;;;;;1.10;0.60;;;6.60;99.90;;;;;;5028423;28;20206;-82
2021/11/25 11:41:02;;;;;;;1.40;0.77;;;6.60;99.90;;;;;;5036958;28;20189;-81
2021/11/25 11:43:29;;;;;;;5.47;0.80;;;6.70;99.90;;;;;;5032644;28;20187;-82
2021/11/25 11:45:56;;;;;;;0.30;0.30;;;6.60;99.90;;;;;;5055248;28;20515;-82
2021/11/25 11:48:22;;;;;;;1.10;0.77;;;6.60;99.90;;;;;;5035340;28;20693;-82
2021/11/25 11:50:50;;;;;;;0.53;0.30;;;6.60;99.90;;;;;;5035054;28;20177;-82
2021/11/25 11:53:19;;;;;;;0.73;0.73;;;6.60;99.90;;;;;;5055770;28;20635;-82
2021/11/25 11:56:06;;;;;;;0.73;0.73;;;6.70;99.90;;;;;;5039718;28;20224;-83
2021/11/25 11:58:47;;;;;;;1.53;1.43;;;6.60;99.90;;;;;;5063287;28;20242;-82
2021/11/25 12:01:16;;;;;;;1.23;0.90;;;6.60;99.90;;;;;;5036070;28;20181;-83
2021/11/25 12:03:55;;;;;;;1.13;1.13;;;6.50;99.90;;;;;;5029508;28;20177;-82
2021/11/25 12:06:36;;;;;;;0.43;0.43;;;6.50;99.90;;;;;;5048346;28;20645;-82
2021/11/25 12:09:27;;;;;;;1.07;0.40;;;6.50;99.90;;;;;;5037082;28;20200;-82
2021/11/25 12:12:06;;;;;;;1.37;0.43;;;6.40;99.90;;;;;;5015326;28;20195;-82
2021/11/25 12:14:32;;;;;;;0.87;0.67;;;6.50;99.90;;;;;;5027317;28;20187;-83
2021/11/25 12:17:07;;;;;;;0.60;0.50;;;6.50;99.90;;;;;;5033845;28;20205;-82
2021/11/25 12:19:37;;;;;;;0.23;0.23;;;6.50;99.90;;;;;;5044808;28;20255;-82
2021/11/25 12:22:12;;;;;;;0.57;0.57;;;6.60;99.90;;;;;;5029734;28;20180;-82
2021/11/25 12:24:49;;;;;;;1.13;1.13;;;6.70;99.90;;;;;;5033847;28;20647;-82
2021/11/25 12:27:35;;;;;;;0.50;0.50;;;6.70;99.90;;;;;;5033880;28;20204;-83
2021/11/25 12:30:03;;;;;;;0.43;0.30;;;6.70;99.90;;;;;;5036371;28;20179;-82
2021/11/25 12:32:55;;;;;;;0.67;0.67;;;6.70;99.90;;;;;;5054457;28;20177;-82
2021/11/25 12:35:44;;;;;;;0.53;0.53;;;6.60;99.90;;;;;;5038170;28;20181;-82
2021/11/25 12:38:12;;;;;;;0.63;0.63;;;6.60;99.90;;;;;;5034839;28;20201;-82
2021/11/25 12:40:42;;;;;;;1.77;0.60;;;6.60;99.90;;;;;;5033626;28;20193;-83
2021/11/25 12:43:09;;;;;;;4.63;0.40;;;6.70;99.90;;;;;;5052524;28;20174;-82
2021/11/25 12:45:42;;;;;;;1.70;1.57;;;6.70;99.90;;;;;;5035564;28;20196;-82
2021/11/25 12:48:08;;;;;;;0.77;0.77;;;6.70;99.90;;;;;;5046301;28;20206;-82
2021/11/25 12:50:42;;;;;;;2.27;0.77;;;6.80;99.90;;;;;;5034870;28;20177;-82
2021/11/25 12:53:19;;;;;;;0.80;0.53;;;6.80;99.90;;;;;;5035399;28;20208;-82
2021/11/25 12:55:51;;;;;;;0.20;0.20;;;6.70;99.90;;;;;;5034512;28;20544;-82
2021/11/25 12:58:17;;;;;;;0.67;0.67;;;6.70;99.90;;;;;;5050530;28;20198;-82
2021/11/25 13:00:45;;;;;;;0.67;0.67;;;6.80;99.90;;;;;;5035165;28;20181;-82
2021/11/25 13:03:17;;;;;;;0.60;0.53;;;6.80;99.90;;;;;;5039521;28;20177;-82
2021/11/25 13:05:43;;;;;;;1.33;0.70;;;6.70;99.90;;;;;;5032434;28;20186;-82
2021/11/25 13:08:12;;;;;;;0.40;0.40;;;6.70;99.90;;;;;;5050642;28;20287;-82
2021/11/25 13:10:42;;;;;;;0.53;0.53;;;6.50;99.90;;;;;;5038021;28;20190;-82
2021/11/25 13:13:11;;;;;;;0.83;0.70;;;6.30;99.90;;;;;;5037918;28;20178;-82